Time;durP1;ratioP1;P1;durP2;ratioP2;P2;SDS_P1;SDS_P2;PMS_P1;PMS_P2;Temp;Humidity;BMP_temperature;BMP_pressure;BME280_temperature;BME280_humidity;BME280_pressure;Samples;Min_cycle;Max_cycle;Signal;HPM_P1;HPM_P2
2022/10/11 00:00:48;;;;;;;6.00;5.40;;;16.60;68.40;;;;;;20611;6752;278050;-86
2022/10/11 00:03:24;;;;;;;6.10;5.50;;;16.90;67.80;;;;;;20624;6755;287067;-86
2022/10/11 00:06:01;;;;;;;5.97;5.30;;;17.30;66.40;;;;;;20623;6751;313395;-86
2022/10/11 00:08:35;;;;;;;4.50;4.10;;;17.60;64.90;;;;;;20825;6751;117755;-86
2022/10/11 00:11:10;;;;;;;6.93;5.72;;;17.50;65.10;;;;;;20624;6755;336255;-86
2022/10/11 00:13:46;;;;;;;6.10;5.50;;;17.60;65.00;;;;;;20618;6759;278091;-86
2022/10/11 00:16:22;;;;;;;6.80;4.80;;;17.80;64.00;;;;;;20801;6744;116155;-86
2022/10/11 00:18:57;;;;;;;6.40;4.67;;;17.60;64.20;;;;;;20770;6769;118263;-87
2022/10/11 00:21:33;;;;;;;7.12;5.32;;;17.30;65.20;;;;;;20664;6751;277788;-86
2022/10/11 00:24:08;;;;;;;5.73;4.73;;;17.40;65.60;;;;;;20876;6751;117540;-86
2022/10/11 00:26:44;;;;;;;6.20;5.10;;;17.30;65.70;;;;;;20756;6751;117862;-86
2022/10/11 00:29:20;;;;;;;8.17;5.23;;;16.90;67.10;;;;;;20805;6766;117565;-86
2022/10/11 00:31:57;;;;;;;9.40;6.60;;;16.90;67.10;;;;;;20680;6736;307119;-90
2022/10/11 00:34:33;;;;;;;9.23;6.90;;;17.10;67.40;;;;;;20614;6751;346350;-88
2022/10/11 00:37:08;;;;;;;19.13;9.97;;;17.50;66.10;;;;;;20695;6775;123963;-86
2022/10/11 00:39:53;;;;;;;47.13;28.80;;;17.40;66.00;;;;;;20826;6774;117421;-86
2022/10/11 00:42:20;;;;;;;89.30;52.33;;;17.40;66.60;;;;;;20609;6773;307406;-86
2022/10/11 00:45:26;;;;;;;85.78;55.97;;;17.40;66.60;;;;;;20581;6776;341661;-85
2022/10/11 00:48:01;;;;;;;21.87;14.60;;;17.70;65.90;;;;;;20556;6775;279282;-86
2022/10/11 00:50:38;;;;;;;11.83;7.53;;;18.00;63.90;;;;;;20796;6760;117997;-86
2022/10/11 00:53:14;;;;;;;11.38;7.55;;;17.70;64.10;;;;;;20600;6759;336831;-86
2022/10/11 00:55:50;;;;;;;6.67;6.03;;;17.50;64.30;;;;;;20832;6768;118264;-86
2022/10/11 00:58:26;;;;;;;10.73;6.77;;;17.50;64.30;;;;;;20863;6759;123649;-86
2022/10/11 01:01:01;;;;;;;9.30;6.18;;;17.20;65.30;;;;;;20645;6759;337988;-86
2022/10/11 01:03:37;;;;;;;6.00;4.70;;;17.30;65.00;;;;;;20819;6760;117265;-86
2022/10/11 01:06:13;;;;;;;8.87;5.00;;;17.20;64.90;;;;;;20844;6745;117237;-86
2022/10/11 01:08:49;;;;;;;8.63;5.10;;;17.00;65.80;;;;;;20877;6765;117325;-86
2022/10/11 01:11:24;;;;;;;8.60;5.27;;;16.80;66.50;;;;;;20767;6775;117401;-86
2022/10/11 01:14:13;;;;;;;7.30;4.90;;;16.70;67.20;;;;;;20809;6761;117168;-86
2022/10/11 01:16:58;;;;;;;10.17;5.60;;;16.60;67.80;;;;;;20542;6746;309654;-86
2022/10/11 01:19:37;;;;;;;7.40;5.47;;;16.90;67.30;;;;;;20781;6778;118477;-87
2022/10/11 01:22:36;;;;;;;8.30;5.68;;;16.90;66.90;;;;;;20643;6746;306748;-87
2022/10/11 01:25:31;;;;;;;6.67;4.53;;;17.10;66.40;;;;;;20864;6747;117229;-86
2022/10/11 01:28:27;;;;;;;8.33;5.20;;;17.20;65.90;;;;;;20629;6755;281737;-86
2022/10/11 01:31:03;;;;;;;8.20;5.20;;;17.20;65.80;;;;;;20603;6775;307728;-87
2022/10/11 01:33:39;;;;;;;5.80;4.60;;;17.40;65.00;;;;;;20808;6763;120759;-86
2022/10/11 01:36:38;;;;;;;6.90;4.57;;;17.30;64.80;;;;;;20661;6783;118413;-87
2022/10/11 01:39:19;;;;;;;9.00;4.47;;;17.00;65.50;;;;;;20841;6766;116787;-86
2022/10/11 01:41:58;;;;;;;10.40;5.90;;;16.70;66.30;;;;;;20622;6766;306760;-86
2022/10/11 01:44:31;;;;;;;6.40;4.97;;;16.90;65.90;;;;;;20736;6777;127059;-87
2022/10/11 01:47:06;;;;;;;6.95;6.03;;;16.80;65.90;;;;;;20602;6748;308416;-86
2022/10/11 01:49:45;;;;;;;5.90;5.00;;;16.90;65.00;;;;;;20921;6718;117148;-86
2022/10/11 01:52:17;;;;;;;6.43;4.80;;;16.80;65.20;;;;;;20899;6733;117121;-86
2022/10/11 01:55:33;;;;;;;7.22;5.37;;;16.50;65.80;;;;;;20681;6743;306542;-87
2022/10/11 01:58:12;;;;;;;6.80;4.70;;;16.70;65.80;;;;;;20942;6719;117455;-87
2022/10/11 02:01:07;;;;;;;7.60;4.60;;;16.50;65.90;;;;;;20578;6808;119291;-86
2022/10/11 02:03:49;;;;;;;5.53;5.00;;;16.30;66.70;;;;;;20740;6718;278796;-86
2022/10/11 02:06:31;;;;;;;5.93;4.63;;;16.50;66.30;;;;;;20536;6789;294652;-86
2022/10/11 02:09:08;;;;;;;4.90;4.40;;;16.80;64.90;;;;;;20648;6748;307696;-86
2022/10/11 02:11:43;;;;;;;4.33;3.90;;;17.10;63.20;;;;;;20953;6733;120977;-86
2022/10/11 02:14:19;;;;;;;7.73;5.40;;;16.90;63.50;;;;;;20926;6727;116846;-86
2022/10/11 02:17:00;;;;;;;45.87;6.97;;;16.50;64.60;;;;;;20794;6727;118276;-86
2022/10/11 02:19:35;;;;;;;36.75;7.20;;;16.30;65.90;;;;;;20663;6742;296304;-87
2022/10/11 02:22:14;;;;;;;367.00;14.05;;;16.40;66.90;;;;;;20660;6757;334724;-87
2022/10/11 02:24:51;;;;;;;182.80;10.97;;;16.80;65.00;;;;;;20848;6757;117661;-87
2022/10/11 02:27:26;;;;;;;211.67;10.27;;;16.70;65.00;;;;;;20464;6757;308808;-87
2022/10/11 02:30:03;;;;;;;287.67;11.53;;;16.80;64.90;;;;;;20870;6757;117804;-87
2022/10/11 02:32:39;;;;;;;405.37;13.13;;;16.70;65.30;;;;;;20643;6757;282261;-87
2022/10/11 02:35:14;;;;;;;547.73;14.97;;;16.80;65.60;;;;;;20658;6757;336123;-86
2022/10/11 02:37:50;;;;;;;194.52;10.60;;;17.00;64.60;;;;;;20439;6814;279635;-87
2022/10/11 02:40:32;;;;;;;253.60;10.97;;;17.30;62.90;;;;;;20647;6742;310085;-87
2022/10/11 02:43:11;;;;;;;9.50;6.70;;;17.40;63.00;;;;;;20872;6757;118337;-87
2022/10/11 02:45:47;;;;;;;31.27;7.90;;;17.10;63.70;;;;;;20609;6798;123143;-86
2022/10/11 02:48:23;;;;;;;8.30;7.50;;;16.80;65.00;;;;;;20922;6726;117095;-87
2022/10/11 02:50:58;;;;;;;9.73;7.93;;;16.50;66.30;;;;;;20906;6727;116923;-87
2022/10/11 02:53:33;;;;;;;9.55;8.65;;;16.30;67.30;;;;;;20756;6727;305367;-87
2022/10/11 02:56:09;;;;;;;9.80;9.00;;;16.50;67.80;;;;;;20696;6727;283585;-87
2022/10/11 02:58:45;;;;;;;9.40;8.70;;;17.20;65.40;;;;;;20728;6727;334508;-87
2022/10/11 03:01:21;;;;;;;11.83;8.83;;;17.20;65.40;;;;;;20926;6727;116997;-87
2022/10/11 03:03:56;;;;;;;9.97;8.90;;;17.10;65.60;;;;;;20973;6726;116960;-87
2022/10/11 03:06:32;;;;;;;9.73;8.80;;;16.90;66.50;;;;;;20825;6727;117349;-87
2022/10/11 03:09:08;;;;;;;11.10;10.00;;;16.60;67.40;;;;;;20694;6732;311174;-87
2022/10/11 03:11:43;;;;;;;9.37;8.53;;;16.80;67.10;;;;;;20952;6717;116284;-87
2022/10/11 03:14:19;;;;;;;9.77;9.00;;;16.80;67.00;;;;;;20867;6744;117229;-87
2022/10/11 03:17:05;;;;;;;12.48;11.18;;;16.90;67.00;;;;;;20448;6759;309695;-88
2022/10/11 03:19:32;;;;;;;11.03;10.03;;;16.90;67.00;;;;;;20555;6775;308488;-87
2022/10/11 03:22:06;;;;;;;9.63;8.73;;;17.20;66.00;;;;;;20814;6760;120200;-87
2022/10/11 03:24:43;;;;;;;9.70;8.17;;;17.20;66.00;;;;;;20877;6746;117156;-87
2022/10/11 03:27:19;;;;;;;11.30;10.30;;;16.90;66.80;;;;;;20546;6745;312985;-86
2022/10/11 03:29:55;;;;;;;10.83;9.83;;;17.10;66.60;;;;;;20675;6745;281109;-86
2022/10/11 03:32:30;;;;;;;10.47;9.63;;;17.60;64.60;;;;;;20657;6745;306732;-87
2022/10/11 03:35:06;;;;;;;9.60;8.83;;;17.60;64.60;;;;;;20795;6763;117598;-86
2022/10/11 03:37:42;;;;;;;11.60;10.43;;;17.50;65.00;;;;;;20516;6731;279994;-86
2022/10/11 03:40:18;;;;;;;10.53;9.63;;;17.70;64.00;;;;;;20557;6776;279139;-86
2022/10/11 03:42:55;;;;;;;10.88;9.90;;;17.70;63.90;;;;;;20592;6759;279794;-86
2022/10/11 03:45:29;;;;;;;9.73;8.80;;;17.90;63.10;;;;;;20762;6774;117012;-85
2022/10/11 03:48:05;;;;;;;9.17;8.20;;;17.70;63.60;;;;;;20861;6745;117336;-85
2022/10/11 03:50:41;;;;;;;11.43;10.32;;;17.30;64.50;;;;;;20672;6760;334809;-86
2022/10/11 03:53:17;;;;;;;12.13;10.90;;;17.60;64.20;;;;;;20630;6745;309134;-86
2022/10/11 03:55:53;;;;;;;9.27;8.57;;;17.60;63.60;;;;;;20647;6748;308392;-86
2022/10/11 03:58:28;;;;;;;10.23;9.23;;;17.80;63.50;;;;;;20830;6763;117955;-86
2022/10/11 04:01:04;;;;;;;8.33;7.73;;;17.60;63.90;;;;;;20891;6748;119978;-86
2022/10/11 04:03:39;;;;;;;9.20;8.40;;;17.30;65.60;;;;;;20889;6747;117412;-86
2022/10/11 04:06:16;;;;;;;9.20;8.33;;;17.00;65.90;;;;;;20826;6757;119374;-86
2022/10/11 04:08:53;;;;;;;9.68;8.98;;;16.80;66.70;;;;;;20715;6733;327105;-86
2022/10/11 04:11:28;;;;;;;10.27;9.10;;;17.00;66.20;;;;;;20946;6733;117041;-86
2022/10/11 04:14:04;;;;;;;11.77;8.80;;;17.00;66.10;;;;;;20953;6733;117191;-86
2022/10/11 04:16:40;;;;;;;12.10;11.00;;;16.80;66.50;;;;;;20626;6733;308167;-86
2022/10/11 04:19:16;;;;;;;13.27;11.60;;;16.90;66.00;;;;;;20743;6733;312985;-88
2022/10/11 04:21:52;;;;;;;13.43;12.03;;;17.30;65.20;;;;;;20959;6732;117802;-89
2022/10/11 04:24:28;;;;;;;16.35;14.13;;;17.20;65.70;;;;;;20696;6744;340683;-86
2022/10/11 04:27:05;;;;;;;15.57;13.93;;;17.20;65.20;;;;;;20599;6748;306033;-87
2022/10/11 04:29:40;;;;;;;15.33;13.73;;;17.70;63.90;;;;;;20675;6748;340946;-88
2022/10/11 04:32:16;;;;;;;15.63;14.20;;;17.60;63.80;;;;;;20633;6766;311375;-86
2022/10/11 04:34:52;;;;;;;13.70;12.23;;;17.80;62.60;;;;;;20458;6769;308881;-86
2022/10/11 04:37:27;;;;;;;12.17;10.97;;;17.90;62.90;;;;;;20471;6776;309827;-87
2022/10/11 04:40:06;;;;;;;13.00;9.90;;;18.00;62.50;;;;;;20755;6776;117669;-87
2022/10/11 04:42:41;;;;;;;11.90;10.33;;;17.70;63.20;;;;;;20724;6776;121608;-88
2022/10/11 04:45:17;;;;;;;9.53;8.30;;;17.40;64.50;;;;;;20884;6746;121255;-88
2022/10/11 04:47:54;;;;;;;12.47;9.70;;;17.10;65.60;;;;;;20565;6832;118753;-88
2022/10/11 04:50:29;;;;;;;11.80;10.87;;;16.80;66.50;;;;;;20827;6761;117276;-87
2022/10/11 04:53:05;;;;;;;9.63;8.70;;;16.70;67.20;;;;;;20851;6761;118224;-89
2022/10/11 04:55:41;;;;;;;10.93;9.80;;;16.60;67.80;;;;;;20889;6746;117133;-88
2022/10/11 04:58:16;;;;;;;9.87;8.90;;;16.50;68.20;;;;;;20910;6744;117792;-87
2022/10/11 05:00:52;;;;;;;12.53;9.30;;;16.40;68.50;;;;;;20846;6759;117325;-87
2022/10/11 05:03:27;;;;;;;10.13;9.13;;;16.40;68.90;;;;;;20862;6759;117691;-87
2022/10/11 05:06:03;;;;;;;10.23;9.33;;;16.40;69.30;;;;;;20760;6761;117395;-88
2022/10/11 05:08:39;;;;;;;10.97;9.73;;;16.30;69.60;;;;;;20829;6789;123292;-88
2022/10/11 05:11:14;;;;;;;9.77;7.60;;;16.30;69.70;;;;;;20970;6729;117084;-92
2022/10/11 05:13:50;;;;;;;9.73;6.43;;;16.30;70.00;;;;;;20745;6817;117056;-86
2022/10/11 05:16:25;;;;;;;45.20;8.63;;;16.30;70.20;;;;;;20739;6773;117414;-85
2022/10/11 05:19:01;;;;;;;11.20;8.80;;;16.30;70.20;;;;;;20582;6759;307476;-86
2022/10/11 05:21:40;;;;;;;9.63;7.83;;;16.60;69.50;;;;;;20677;6746;306021;-86
2022/10/11 05:24:13;;;;;;;7.18;6.45;;;17.00;67.50;;;;;;20690;6745;306128;-87
2022/10/11 05:26:49;;;;;;;6.40;5.90;;;17.40;66.00;;;;;;20793;6745;119523;-87
2022/10/11 05:29:25;;;;;;;7.40;6.80;;;17.10;67.20;;;;;;20910;6729;120837;-85
2022/10/11 05:32:01;;;;;;;8.30;7.60;;;17.10;67.10;;;;;;20701;6729;280925;-86
2022/10/11 05:34:46;;;;;;;9.45;8.68;;;17.20;66.80;;;;;;20687;6729;305921;-86
2022/10/11 05:37:12;;;;;;;13.53;10.90;;;17.50;65.30;;;;;;20551;6729;309296;-88
2022/10/11 05:39:48;;;;;;;14.32;11.40;;;17.80;63.80;;;;;;20649;6746;305555;-89
2022/10/11 05:42:24;;;;;;;12.27;11.07;;;18.00;62.90;;;;;;20618;6738;276690;-87
2022/10/11 05:45:04;;;;;;;16.13;12.70;;;18.20;62.40;;;;;;20669;6738;277867;-88
2022/10/11 05:47:40;;;;;;;15.40;11.57;;;18.30;61.30;;;;;;20694;6738;118234;-88
2022/10/11 05:50:17;;;;;;;15.33;13.00;;;18.00;62.00;;;;;;20923;6728;117573;-90
2022/10/11 05:52:52;;;;;;;18.80;12.93;;;17.60;63.20;;;;;;20683;6758;118048;-90
2022/10/11 05:55:29;;;;;;;18.73;12.30;;;17.30;64.10;;;;;;20779;6767;116724;-93
2022/10/11 05:58:05;;;;;;;17.90;12.73;;;17.00;64.90;;;;;;20905;6786;116865;-88
2022/10/11 06:00:41;;;;;;;20.60;12.40;;;16.80;66.50;;;;;;20783;6774;117640;-94
2022/10/11 06:03:26;;;;;;;;;;;;;;;;;;;;;
2022/10/11 06:06:03;;;;;;;;;;;;;;;;;;;;;
2022/10/11 06:08:29;;;;;;;22.10;14.73;;;17.40;64.00;;;;;;20890;6767;116725;-90
2022/10/11 06:11:08;;;;;;;15.83;12.73;;;17.40;64.10;;;;;;20838;6775;116881;-90
2022/10/11 06:13:53;;;;;;;19.77;15.93;;;17.20;64.80;;;;;;20738;6744;298718;-91
2022/10/11 06:16:19;;;;;;;19.07;13.80;;;17.40;64.30;;;;;;20971;6729;73751;-91
2022/10/11 06:18:55;;;;;;;19.90;13.67;;;17.30;64.40;;;;;;21015;6733;118735;-90
2022/10/11 06:21:40;;;;;;;;;;;;;;;;;;;;;
2022/10/11 06:24:06;;;;;;;19.40;12.63;;;17.00;65.60;;;;;;21052;6722;119042;-90
2022/10/11 06:26:41;;;;;;;20.73;15.90;;;16.80;66.10;;;;;;20600;6739;308346;-89
2022/10/11 06:29:17;;;;;;;20.12;15.40;;;17.10;65.60;;;;;;20730;6735;336016;-90
2022/10/11 06:32:02;;;;;;;17.73;14.13;;;17.50;63.70;;;;;;20692;6737;275530;-90
2022/10/11 06:34:29;;;;;;;20.10;14.07;;;17.70;63.30;;;;;;20877;6752;117467;-88
2022/10/11 06:37:06;;;;;;;17.83;13.03;;;17.70;63.30;;;;;;20730;6766;117888;-89
2022/10/11 06:39:42;;;;;;;12.90;11.70;;;17.40;64.20;;;;;;20969;6722;117822;-89
2022/10/11 06:42:17;;;;;;;17.07;11.13;;;17.10;64.80;;;;;;20914;6747;116903;-90
2022/10/11 06:44:53;;;;;;;17.37;13.70;;;17.20;65.20;;;;;;20582;6778;306905;-90
2022/10/11 06:47:42;;;;;;;21.90;15.13;;;17.20;65.20;;;;;;20449;6776;292304;-89
2022/10/11 06:50:12;;;;;;;18.10;13.33;;;17.50;63.50;;;;;;20768;6779;118052;-89
2022/10/11 06:52:44;;;;;;;19.23;15.10;;;17.40;63.60;;;;;;20644;6765;276925;-89
2022/10/11 06:55:29;;;;;;;21.00;16.47;;;17.80;62.40;;;;;;20701;6750;307430;-90
2022/10/11 06:57:55;;;;;;;23.17;17.85;;;17.80;62.40;;;;;;20396;6854;331846;-90
2022/10/11 07:00:31;;;;;;;21.50;15.53;;;18.00;61.80;;;;;;20859;6758;122331;-90
2022/10/11 07:03:07;;;;;;;22.55;17.40;;;17.90;62.20;;;;;;20667;6763;310465;-90
2022/10/11 07:05:43;;;;;;;20.37;14.77;;;17.70;62.30;;;;;;20838;6766;118059;-89
2022/10/11 07:08:19;;;;;;;21.77;17.63;;;17.70;62.30;;;;;;20738;6740;277922;-89
2022/10/11 07:11:01;;;;;;;21.57;15.87;;;17.80;62.30;;;;;;20846;6748;123917;-89
2022/10/11 07:13:36;;;;;;;26.67;18.43;;;17.70;62.80;;;;;;20630;6759;281899;-90
2022/10/11 07:16:13;;;;;;;25.12;19.67;;;18.00;61.50;;;;;;20561;6767;339910;-89
2022/10/11 07:18:51;;;;;;;26.57;19.10;;;18.00;61.40;;;;;;20604;6781;307739;-89
2022/10/11 07:21:27;;;;;;;22.48;18.52;;;18.20;60.30;;;;;;20614;6774;336381;-89
2022/10/11 07:24:03;;;;;;;25.43;18.50;;;18.40;60.10;;;;;;20661;6748;306503;-88
2022/10/11 07:26:50;;;;;;;;;;;;;;;;;;;;;
2022/10/11 07:29:15;;;;;;;23.10;15.63;;;18.50;59.70;;;;;;20863;6759;117787;-89
2022/10/11 07:31:51;;;;;;;19.30;15.50;;;18.30;60.50;;;;;;20781;6770;117052;-89
2022/10/11 07:34:27;;;;;;;20.90;16.73;;;17.60;62.10;;;;;;20825;6759;118448;-89
2022/10/11 07:37:04;;;;;;;26.70;16.57;;;17.60;62.10;;;;;;20694;6760;118688;-89
2022/10/11 07:39:39;;;;;;;23.97;16.63;;;17.40;63.00;;;;;;20864;6759;70014;-94
2022/10/11 07:42:25;;;;;;;;;;;;;;;;;;;;;
2022/10/11 07:44:51;;;;;;;25.67;20.20;;;17.30;63.30;;;;;;20607;6744;305858;-92
2022/10/11 07:47:37;;;;;;;;;;;;;;;;;;;;;
2022/10/11 07:50:03;;;;;;;29.47;20.50;;;18.00;61.70;;;;;;20386;6745;306832;-92
2022/10/11 07:52:39;;;;;;;29.33;19.00;;;18.00;61.60;;;;;;20668;6764;118353;-92
2022/10/11 07:55:26;;;;;;;;;;;;;;;;;;;;;
2022/10/11 07:57:55;;;;;;;26.57;18.20;;;17.70;62.80;;;;;;20679;6814;118338;-91
2022/10/11 08:00:41;;;;;;;24.77;17.63;;;17.50;63.50;;;;;;20326;6800;121497;-91
2022/10/11 08:03:07;;;;;;;28.75;21.15;;;17.30;64.10;;;;;;20670;6759;287667;-92
2022/10/11 08:05:53;;;;;;;;;;;;;;;;;;;;;
2022/10/11 08:32:53;;;;;;;21.53;16.63;;;16.80;67.80;;;;;;20956;6558;90330;-89
2022/10/11 08:35:20;;;;;;;28.33;21.07;;;16.80;67.90;;;;;;20691;6787;305725;-89
2022/10/11 08:37:47;;;;;;;26.50;17.77;;;17.20;65.80;;;;;;20679;6787;120567;-92
2022/10/11 08:40:13;;;;;;;24.27;17.10;;;17.40;65.60;;;;;;20714;6847;117535;-91
2022/10/11 08:42:42;;;;;;;21.57;16.43;;;17.40;65.60;;;;;;20680;6837;118437;-93
2022/10/11 08:45:08;;;;;;;20.97;16.37;;;17.40;65.90;;;;;;20715;6837;125264;-93
2022/10/11 08:47:36;;;;;;;26.07;20.67;;;17.40;66.00;;;;;;20522;6841;278043;-90
2022/10/11 08:50:02;;;;;;;27.60;19.67;;;17.70;64.00;;;;;;20501;6844;307686;-89
2022/10/11 08:52:27;;;;;;;23.30;19.27;;;18.20;62.80;;;;;;20500;6847;307974;-90
2022/10/11 08:55:03;;;;;;;27.15;22.37;;;18.50;60.90;;;;;;20376;6880;325969;-92
2022/10/11 08:57:28;;;;;;;24.73;17.13;;;18.80;59.80;;;;;;20640;6870;122125;-90
2022/10/11 08:59:55;;;;;;;25.00;19.30;;;18.80;59.30;;;;;;20448;6865;321181;-89
2022/10/11 09:02:47;;;;;;;24.85;19.27;;;18.90;59.10;;;;;;20450;6865;310506;-90
2022/10/11 09:05:13;;;;;;;24.70;17.23;;;18.90;59.10;;;;;;20669;6865;116876;-90
2022/10/11 09:07:41;;;;;;;18.80;16.00;;;18.80;59.70;;;;;;20606;6880;118495;-89
2022/10/11 09:10:28;;;;;;;24.23;18.80;;;18.60;59.50;;;;;;20445;6870;334021;-87
2022/10/11 09:13:00;;;;;;;18.50;14.53;;;18.60;59.50;;;;;;20670;6865;120519;-90
2022/10/11 09:15:49;;;;;;;21.77;17.80;;;18.50;60.30;;;;;;20435;6870;308865;-92
2022/10/11 09:18:34;;;;;;;19.33;15.73;;;18.70;59.90;;;;;;20585;6880;118282;-88
2022/10/11 09:21:03;;;;;;;18.47;15.40;;;18.70;60.10;;;;;;20675;6864;120874;-89
2022/10/11 09:23:32;;;;;;;25.43;15.73;;;18.30;61.50;;;;;;20654;6864;119340;-86
2022/10/11 09:25:58;;;;;;;24.57;15.57;;;18.30;61.50;;;;;;20643;6864;121248;-87
2022/10/11 09:28:46;;;;;;;21.08;16.65;;;18.20;61.80;;;;;;20420;6864;308763;-85
2022/10/11 09:31:13;;;;;;;18.60;14.53;;;18.40;59.90;;;;;;20671;6864;118230;-84
2022/10/11 09:33:39;;;;;;;19.53;15.10;;;18.40;60.20;;;;;;20665;6864;118963;-86
2022/10/11 09:36:24;;;;;;;21.70;18.27;;;18.30;61.00;;;;;;20468;6846;316870;-84
2022/10/11 09:39:06;;;;;;;23.07;17.67;;;18.50;60.30;;;;;;20701;6846;118968;-84
2022/10/11 09:41:32;;;;;;;22.03;15.60;;;18.50;60.50;;;;;;20721;6846;123819;-86
2022/10/11 09:43:57;;;;;;;19.02;15.70;;;18.30;60.70;;;;;;20725;6844;121086;-86
2022/10/11 09:46:33;;;;;;;20.33;17.00;;;18.20;61.10;;;;;;20517;6845;280123;-86
2022/10/11 09:49:00;;;;;;;24.20;17.85;;;18.30;60.70;;;;;;20508;6846;281958;-85
2022/10/11 09:51:26;;;;;;;18.43;15.07;;;18.70;59.90;;;;;;20728;6846;118641;-85
2022/10/11 09:53:57;;;;;;;21.87;14.73;;;18.70;60.10;;;;;;20718;6846;117568;-85
2022/10/11 09:56:22;;;;;;;21.27;17.63;;;18.50;60.60;;;;;;20510;6846;308202;-85
2022/10/11 09:58:48;;;;;;;17.67;15.82;;;18.70;59.60;;;;;;20482;6846;314742;-84
2022/10/11 10:01:20;;;;;;;22.65;15.52;;;18.90;58.70;;;;;;20473;6846;119321;-87
2022/10/11 10:03:46;;;;;;;20.67;14.43;;;18.90;59.20;;;;;;20733;6846;118057;-85
2022/10/11 10:06:11;;;;;;;19.52;14.80;;;18.80;60.00;;;;;;20507;6846;279129;-85
2022/10/11 10:08:37;;;;;;;20.43;15.10;;;19.00;59.70;;;;;;20686;6846;118911;-85
2022/10/11 10:11:02;;;;;;;16.60;14.03;;;19.00;59.90;;;;;;20717;6846;118299;-86
2022/10/11 10:13:51;;;;;;;15.40;12.57;;;18.90;60.20;;;;;;20683;6846;118088;-86
2022/10/11 10:16:17;;;;;;;15.43;13.93;;;18.80;60.70;;;;;;20754;6846;121572;-85
2022/10/11 10:18:42;;;;;;;21.87;16.60;;;18.80;61.20;;;;;;20554;6846;335817;-88
2022/10/11 10:21:08;;;;;;;19.58;15.07;;;19.00;59.10;;;;;;20570;6846;335300;-85
2022/10/11 10:23:35;;;;;;;19.70;13.20;;;19.40;58.20;;;;;;20748;6846;118833;-86
2022/10/11 10:26:13;;;;;;;16.63;13.27;;;19.30;58.10;;;;;;20722;6846;118022;-87
2022/10/11 10:28:40;;;;;;;17.10;12.40;;;19.10;58.30;;;;;;20712;6846;130919;-85
2022/10/11 10:31:06;;;;;;;19.50;15.02;;;18.80;58.80;;;;;;20468;6846;294193;-88
2022/10/11 10:33:35;;;;;;;21.23;13.88;;;18.90;57.40;;;;;;20673;6846;117706;-88
2022/10/11 10:36:01;;;;;;;16.33;12.93;;;18.90;58.00;;;;;;20716;6846;118639;-85
2022/10/11 10:38:26;;;;;;;23.10;15.57;;;18.70;58.40;;;;;;20467;6846;311884;-87
2022/10/11 10:41:01;;;;;;;15.93;12.57;;;18.80;57.80;;;;;;20685;6846;120868;-86
2022/10/11 10:43:26;;;;;;;17.57;12.30;;;18.80;57.80;;;;;;20707;6846;122208;-86
2022/10/11 10:46:16;;;;;;;17.27;13.30;;;18.70;58.70;;;;;;20707;6846;117442;-86
2022/10/11 10:49:10;;;;;;;20.60;12.97;;;18.60;59.30;;;;;;20692;6846;118749;-87
2022/10/11 10:52:04;;;;;;;21.73;13.30;;;18.60;60.00;;;;;;20720;6846;118404;-87
2022/10/11 10:54:30;;;;;;;19.97;15.23;;;18.50;60.10;;;;;;20506;6844;308649;-87
2022/10/11 10:57:03;;;;;;;19.60;15.20;;;18.80;57.80;;;;;;20493;6845;344297;-88
2022/10/11 10:59:48;;;;;;;19.57;14.93;;;19.20;56.60;;;;;;20470;6846;280301;-86
2022/10/11 11:02:35;;;;;;;16.23;13.00;;;19.50;55.90;;;;;;20700;6846;123938;-86
2022/10/11 11:05:17;;;;;;;17.07;14.50;;;19.50;56.70;;;;;;20485;6865;290442;-86
2022/10/11 11:07:46;;;;;;;20.50;13.40;;;19.60;56.40;;;;;;20689;6866;117795;-90
2022/10/11 11:10:24;;;;;;;17.40;13.17;;;19.60;56.40;;;;;;20667;6865;119309;-86
2022/10/11 11:13:07;;;;;;;21.52;16.45;;;19.40;57.10;;;;;;20437;6859;301173;-86
2022/10/11 11:15:36;;;;;;;18.05;15.07;;;20.00;55.60;;;;;;20433;6860;309187;-87
2022/10/11 11:18:30;;;;;;;16.37;12.80;;;19.90;55.50;;;;;;20709;6845;119042;-87
2022/10/11 11:21:16;;;;;;;17.63;12.87;;;19.90;55.90;;;;;;20693;6860;117805;-86
2022/10/11 11:23:45;;;;;;;15.13;12.43;;;19.40;57.30;;;;;;19942;6860;121658;-88
2022/10/11 11:26:17;;;;;;;17.33;13.03;;;19.40;57.20;;;;;;20628;6860;120878;-86
2022/10/11 11:28:43;;;;;;;17.60;15.07;;;19.30;57.60;;;;;;20437;6860;280124;-87
2022/10/11 11:31:21;;;;;;;16.67;13.85;;;19.50;56.50;;;;;;20443;6860;308748;-86
2022/10/11 11:34:00;;;;;;;18.60;13.47;;;19.90;56.00;;;;;;20498;6860;118128;-86
2022/10/11 11:36:32;;;;;;;15.87;12.97;;;20.00;56.60;;;;;;20675;6860;116975;-86
2022/10/11 11:38:57;;;;;;;14.83;13.33;;;19.90;57.30;;;;;;20657;6860;118158;-86
2022/10/11 11:41:33;;;;;;;15.17;13.10;;;19.60;57.80;;;;;;20702;6845;117664;-88
2022/10/11 11:44:15;;;;;;;16.57;13.07;;;19.60;57.70;;;;;;20584;6860;117804;-87
2022/10/11 11:46:41;;;;;;;16.80;14.15;;;19.60;58.00;;;;;;20439;6860;308512;-86
2022/10/11 11:49:11;;;;;;;16.67;13.67;;;19.80;55.70;;;;;;20423;6860;308548;-87
2022/10/11 11:51:41;;;;;;;16.03;12.67;;;20.20;54.30;;;;;;20664;6860;118314;-87
2022/10/11 11:54:10;;;;;;;13.67;11.77;;;20.30;54.90;;;;;;20653;6860;121223;-87
2022/10/11 11:56:46;;;;;;;18.47;12.50;;;20.00;56.30;;;;;;20660;6860;118327;-86
2022/10/11 11:59:24;;;;;;;19.63;11.93;;;20.00;56.30;;;;;;20725;6845;118187;-87
2022/10/11 12:01:57;;;;;;;15.30;13.40;;;19.90;56.70;;;;;;20444;6860;291526;-87
2022/10/11 12:04:29;;;;;;;17.33;13.43;;;20.10;54.20;;;;;;20331;6860;305525;-86
2022/10/11 12:06:54;;;;;;;16.30;12.17;;;20.50;53.50;;;;;;20680;6858;118301;-86
2022/10/11 12:09:21;;;;;;;15.27;12.30;;;20.50;54.10;;;;;;20280;6860;338956;-87
2022/10/11 12:11:59;;;;;;;13.07;10.80;;;20.60;52.70;;;;;;20714;6845;117498;-88
2022/10/11 12:14:28;;;;;;;12.67;10.40;;;20.50;53.50;;;;;;20692;6845;117539;-87
2022/10/11 12:17:07;;;;;;;15.87;9.50;;;20.30;54.30;;;;;;20644;6860;125034;-86
2022/10/11 12:19:34;;;;;;;15.67;10.13;;;20.00;54.80;;;;;;20703;6849;117339;-87
2022/10/11 12:22:28;;;;;;;14.37;10.60;;;19.90;55.20;;;;;;20672;6863;117499;-88
2022/10/11 12:25:08;;;;;;;12.77;10.33;;;19.70;55.40;;;;;;20665;6863;117894;-87
2022/10/11 12:27:53;;;;;;;12.93;9.63;;;19.60;55.80;;;;;;20411;6863;117538;-86
2022/10/11 12:30:45;;;;;;;13.50;11.67;;;19.40;55.90;;;;;;20486;6853;278452;-86
2022/10/11 12:33:32;;;;;;;15.15;11.75;;;19.60;54.80;;;;;;20529;6842;307585;-86
2022/10/11 12:35:57;;;;;;;15.47;11.50;;;20.10;53.50;;;;;;20519;6842;311841;-85
2022/10/11 12:38:27;;;;;;;15.13;10.47;;;20.30;53.20;;;;;;20725;6842;117660;-87
2022/10/11 12:40:59;;;;;;;15.47;11.60;;;20.20;54.00;;;;;;20491;6842;307688;-87
2022/10/11 12:43:30;;;;;;;12.87;11.43;;;20.30;52.70;;;;;;20462;6842;278694;-89
2022/10/11 12:45:57;;;;;;;11.67;10.40;;;20.40;52.40;;;;;;20724;6842;117380;-86
2022/10/11 12:48:37;;;;;;;14.13;9.43;;;20.00;54.30;;;;;;20667;6842;117594;-86
2022/10/11 12:51:21;;;;;;;13.20;9.73;;;20.00;54.30;;;;;;20715;6842;117963;-87
2022/10/11 12:54:14;;;;;;;13.70;10.40;;;19.50;55.50;;;;;;20721;6842;124128;-86
2022/10/11 12:57:04;;;;;;;11.90;9.90;;;19.40;55.60;;;;;;20703;6842;123967;-88
2022/10/11 12:59:29;;;;;;;15.57;9.67;;;19.40;55.60;;;;;;19686;7186;119033;-88
2022/10/11 13:01:55;;;;;;;13.43;12.10;;;19.30;56.00;;;;;;20068;6842;340787;-86
2022/10/11 13:04:20;;;;;;;11.65;10.45;;;19.50;54.50;;;;;;20739;6842;117542;-87
2022/10/11 13:06:52;;;;;;;15.55;11.82;;;19.90;53.80;;;;;;20499;6842;310856;-87
2022/10/11 13:09:30;;;;;;;15.17;11.20;;;19.90;54.40;;;;;;20718;6842;117910;-86
2022/10/11 13:12:06;;;;;;;14.60;10.83;;;19.80;54.20;;;;;;20740;6842;117773;-87
2022/10/11 13:14:39;;;;;;;12.70;10.87;;;19.70;54.70;;;;;;20498;6842;278549;-88
2022/10/11 13:17:15;;;;;;;17.37;13.07;;;19.90;53.90;;;;;;20501;6840;312055;-86
2022/10/11 13:19:40;;;;;;;19.73;14.47;;;20.20;52.70;;;;;;20721;6841;116484;-87
2022/10/11 13:22:05;;;;;;;15.48;10.65;;;20.10;53.40;;;;;;20755;6842;117516;-88
2022/10/11 13:24:34;;;;;;;15.30;13.70;;;19.90;54.10;;;;;;20535;6842;311074;-88
2022/10/11 13:27:00;;;;;;;16.73;12.65;;;20.00;52.80;;;;;;20586;6842;306122;-87
2022/10/11 13:29:39;;;;;;;20.97;13.43;;;20.60;52.20;;;;;;20553;6842;339239;-85
2022/10/11 13:32:05;;;;;;;16.00;12.33;;;20.60;52.00;;;;;;20521;6842;312013;-85
2022/10/11 13:34:30;;;;;;;17.13;11.83;;;20.80;51.60;;;;;;20704;6842;117720;-86
2022/10/11 13:36:56;;;;;;;15.90;11.23;;;20.80;52.60;;;;;;20512;6842;313573;-88
2022/10/11 13:39:23;;;;;;;13.50;11.07;;;20.80;52.30;;;;;;20734;6842;117608;-86